Time;durP1;ratioP1;P1;durP2;ratioP2;P2;SDS_P1;SDS_P2;PMS_P1;PMS_P2;Temp;Humidity;BMP_temperature;BMP_pressure;BME280_temperature;BME280_humidity;BME280_pressure;Samples;Min_cycle;Max_cycle;Signal;HPM_P1;HPM_P2
2023/08/19 00:01:04;;;;;;;;;;;;;;;;;;5034926;28;20362;-82
2023/08/19 00:03:30;;;;;;;;;;;;;;;;;;5017977;28;20007;-82
2023/08/19 00:05:56;;;;;;;;;;;;;;;;;;5033518;28;19931;-82
2023/08/19 00:08:22;;;;;;;;;;;;;;;;;;5034300;28;19921;-82
2023/08/19 00:10:48;;;;;;;;;;;;;;;;;;5034963;28;19921;-83
2023/08/19 00:13:14;;;;;;;;;;;;;;;;;;5034156;28;20373;-82
2023/08/19 00:15:40;;;;;;;;;;;;;;;;;;5030431;28;20357;-82
2023/08/19 00:18:06;;;;;;;;;;;;;;;;;;5032711;28;19920;-82
2023/08/19 00:20:32;;;;;;;;;;;;;;;;;;5023988;28;19936;-82
2023/08/19 00:22:58;;;;;;;;;;;;;;;;;;5031541;28;19920;-81
2023/08/19 00:25:24;;;;;;;;;;;;;;;;;;5031258;28;19931;-83
2023/08/19 00:27:50;;;;;;;;;;;;;;;;;;5013334;28;20016;-82
2023/08/19 00:30:16;;;;;;;;;;;;;;;;;;5027233;28;19924;-82
2023/08/19 00:32:42;;;;;;;;;;;;;;;;;;5018599;28;19921;-82
2023/08/19 00:35:08;;;;;;;;;;;;;;;;;;5034314;28;20309;-82
2023/08/19 00:37:35;;;;;;;;;;;;;;;;;;5034183;28;19921;-83
2023/08/19 00:40:04;;;;;;;;;;;;;;;;;;5033104;28;19974;-82
2023/08/19 00:42:29;;;;;;;;;;;;;;;;;;5031457;28;19925;-82
2023/08/19 00:44:55;;;;;;;;;;;;;;;;;;5032358;28;19921;-82
2023/08/19 00:47:21;;;;;;;;;;;;;;;;;;5016671;28;19921;-82
2023/08/19 00:49:47;;;;;;;;;;;;;;;;;;5032767;28;19921;-83
2023/08/19 00:52:13;;;;;;;;;;;;;;;;;;5016640;28;19928;-81
2023/08/19 00:54:39;;;;;;;;;;;;;;;;;;5017158;28;19974;-83
2023/08/19 00:57:05;;;;;;;;;;;;;;;;;;5032472;28;19925;-82
2023/08/19 00:59:31;;;;;;;;;;;;;;;;;;5033178;28;19935;-83
2023/08/19 01:01:57;;;;;;;;;;;;;;;;;;5016510;28;19921;-83
2023/08/19 01:04:24;;;;;;;;;;;;;;;;;;5016832;28;19921;-83
2023/08/19 01:06:50;;;;;;;;;;;;;;;;;;5032180;28;19970;-83
2023/08/19 01:09:16;;;;;;;;;;;;;;;;;;5029494;28;19921;-83
2023/08/19 01:11:42;;;;;;;;;;;;;;;;;;5033170;28;19994;-83
2023/08/19 01:14:08;;;;;;;;;;;;;;;;;;5031989;28;19921;-83
2023/08/19 01:16:34;;;;;;;;;;;;;;;;;;5016489;28;20277;-84
2023/08/19 01:19:00;;;;;;;;;;;;;;;;;;5015925;28;19982;-83
2023/08/19 01:21:26;;;;;;;;;;;;;;;;;;5031830;28;19931;-83
2023/08/19 01:23:53;;;;;;;;;;;;;;;;;;5017028;28;19924;-83
2023/08/19 01:26:19;;;;;;;;;;;;;;;;;;5033181;28;19920;-83
2023/08/19 01:28:45;;;;;;;;;;;;;;;;;;5031158;28;19921;-83
2023/08/19 01:31:11;;;;;;;;;;;;;;;;;;5033217;28;19928;-83
2023/08/19 01:33:37;;;;;;;;;;;;;;;;;;5031581;28;19927;-84
2023/08/19 01:36:03;;;;;;;;;;;;;;;;;;5014641;28;20015;-83
2023/08/19 01:38:29;;;;;;;;;;;;;;;;;;5032759;28;21269;-83
2023/08/19 01:40:55;;;;;;;;;;;;;;;;;;5032386;28;19928;-83
2023/08/19 01:43:21;;;;;;;;;;;;;;;;;;5027882;28;19935;-84
2023/08/19 01:45:47;;;;;;;;;;;;;;;;;;5031496;28;20011;-84
2023/08/19 01:48:13;;;;;;;;;;;;;;;;;;5032262;28;19921;-84
2023/08/19 01:50:39;;;;;;;;;;;;;;;;;;5017243;28;19999;-84
2023/08/19 01:53:05;;;;;;;;;;;;;;;;;;5022998;28;19927;-83
2023/08/19 01:55:31;;;;;;;;;;;;;;;;;;5033728;28;19921;-83
2023/08/19 01:57:57;;;;;;;;;;;;;;;;;;5031779;28;19924;-84
2023/08/19 02:00:22;;;;;;;;;;;;;;;;;;5030940;28;19924;-84
2023/08/19 02:02:48;;;;;;;;;;;;;;;;;;5030615;28;19927;-84
2023/08/19 02:05:14;;;;;;;;;;;;;;;;;;5033768;28;19921;-84
2023/08/19 02:07:40;;;;;;;;;;;;;;;;;;5031935;28;20024;-83
2023/08/19 02:10:06;;;;;;;;;;;;;;;;;;5017774;28;20421;-83
2023/08/19 02:12:32;;;;;;;;;;;;;;;;;;5037368;28;19964;-84
2023/08/19 02:14:58;;;;;;;;;;;;;;;;;;5021450;28;19920;-85
2023/08/19 02:17:24;;;;;;;;;;;;;;;;;;5019632;28;19921;-84
2023/08/19 02:19:50;;;;;;;;;;;;;;;;;;5019879;28;19924;-85
2023/08/19 02:22:20;;;;;;;;;;;;;;;;;;5035282;28;19932;-84
2023/08/19 02:24:46;;;;;;;;;;;;;;;;;;5036518;28;19925;-84
2023/08/19 02:27:12;;;;;;;;;;;;;;;;;;5035557;28;19928;-83
2023/08/19 02:29:38;;;;;;;;;;;;;;;;;;5016340;28;19951;-85
2023/08/19 02:32:04;;;;;;;;;;;;;;;;;;5036441;28;19921;-84
2023/08/19 02:34:30;;;;;;;;;;;;;;;;;;5035247;28;20355;-84
2023/08/19 02:36:56;;;;;;;;;;;;;;;;;;5036860;28;20616;-85
2023/08/19 02:39:22;;;;;;;;;;;;;;;;;;5034335;28;19934;-83
2023/08/19 02:41:48;;;;;;;;;;;;;;;;;;5016643;28;19947;-84
2023/08/19 02:44:14;;;;;;;;;;;;;;;;;;5028779;28;19921;-84
2023/08/19 02:46:40;;;;;;;;;;;;;;;;;;5019088;28;20031;-84
2023/08/19 02:49:06;;;;;;;;;;;;;;;;;;5034514;28;19923;-84
2023/08/19 02:51:31;;;;;;;;;;;;;;;;;;5019769;28;19927;-84
2023/08/19 02:53:58;;;;;;;;;;;;;;;;;;5035000;28;19920;-83
2023/08/19 02:56:24;;;;;;;;;;;;;;;;;;5019961;28;19927;-82
2023/08/19 02:58:50;;;;;;;;;;;;;;;;;;5035487;28;19935;-84
2023/08/19 03:01:16;;;;;;;;;;;;;;;;;;5018803;28;19924;-83
2023/08/19 03:03:44;;;;;;;;;;;;;;;;;;5035392;28;19970;-83
2023/08/19 03:06:10;;;;;;;;;;;;;;;;;;5035900;28;19921;-83
2023/08/19 03:08:36;;;;;;;;;;;;;;;;;;5015614;28;19921;-83
2023/08/19 03:11:02;;;;;;;;;;;;;;;;;;5025533;28;19971;-83
2023/08/19 03:13:28;;;;;;;;;;;;;;;;;;5017984;28;20000;-84
2023/08/19 03:15:54;;;;;;;;;;;;;;;;;;5019886;28;20428;-83
2023/08/19 03:18:20;;;;;;;;;;;;;;;;;;5034636;28;20278;-83
2023/08/19 03:20:46;;;;;;;;;;;;;;;;;;5034591;28;19924;-83
2023/08/19 03:23:12;;;;;;;;;;;;;;;;;;5032209;28;20293;-83
2023/08/19 03:25:38;;;;;;;;;;;;;;;;;;5035728;28;20029;-83
2023/08/19 03:28:04;;;;;;;;;;;;;;;;;;5034919;28;19921;-84
2023/08/19 03:30:30;;;;;;;;;;;;;;;;;;5034885;28;19925;-84
2023/08/19 03:32:56;;;;;;;;;;;;;;;;;;5032294;28;20385;-83
2023/08/19 03:35:22;;;;;;;;;;;;;;;;;;5035939;28;19924;-84
2023/08/19 03:37:48;;;;;;;;;;;;;;;;;;5035545;28;19920;-83
2023/08/19 03:40:14;;;;;;;;;;;;;;;;;;5019757;28;19928;-83
2023/08/19 03:42:40;;;;;;;;;;;;;;;;;;5016713;28;19921;-83
2023/08/19 03:45:05;;;;;;;;;;;;;;;;;;5015720;28;19927;-84
2023/08/19 03:47:31;;;;;;;;;;;;;;;;;;5026251;28;19920;-84
2023/08/19 03:49:57;;;;;;;;;;;;;;;;;;5022187;28;20353;-84
2023/08/19 03:52:25;;;;;;;;;;;;;;;;;;5025940;28;20465;-83
2023/08/19 03:54:51;;;;;;;;;;;;;;;;;;5033528;28;20003;-83
2023/08/19 03:57:17;;;;;;;;;;;;;;;;;;5016397;28;20024;-84
2023/08/19 03:59:43;;;;;;;;;;;;;;;;;;5021610;28;20346;-83
2023/08/19 04:02:09;;;;;;;;;;;;;;;;;;5036069;28;20290;-83
2023/08/19 04:04:35;;;;;;;;;;;;;;;;;;5024611;28;19921;-84
2023/08/19 04:07:01;;;;;;;;;;;;;;;;;;5016527;28;20012;-83
2023/08/19 04:09:26;;;;;;;;;;;;;;;;;;5016319;28;19947;-83
2023/08/19 04:11:54;;;;;;;;;;;;;;;;;;5015653;28;20004;-83
2023/08/19 04:14:20;;;;;;;;;;;;;;;;;;5023659;28;19943;-84
2023/08/19 04:16:46;;;;;;;;;;;;;;;;;;5018361;28;20373;-84
2023/08/19 04:19:12;;;;;;;;;;;;;;;;;;5033672;28;19921;-84
2023/08/19 04:21:38;;;;;;;;;;;;;;;;;;5033004;28;20025;-84
2023/08/19 04:24:04;;;;;;;;;;;;;;;;;;5032575;28;19921;-84
2023/08/19 04:26:30;;;;;;;;;;;;;;;;;;5018465;28;19925;-84
2023/08/19 04:28:56;;;;;;;;;;;;;;;;;;5016894;28;20385;-83
2023/08/19 04:31:22;;;;;;;;;;;;;;;;;;5034620;28;19921;-83
2023/08/19 04:33:48;;;;;;;;;;;;;;;;;;5033684;28;19927;-83
2023/08/19 04:36:14;;;;;;;;;;;;;;;;;;5033653;28;19924;-84
2023/08/19 04:38:40;;;;;;;;;;;;;;;;;;5017596;28;19921;-84
2023/08/19 04:41:06;;;;;;;;;;;;;;;;;;5017781;28;19924;-84
2023/08/19 04:43:32;;;;;;;;;;;;;;;;;;5015540;28;19929;-84
2023/08/19 04:45:58;;;;;;;;;;;;;;;;;;5016238;28;19924;-84
2023/08/19 04:48:24;;;;;;;;;;;;;;;;;;5014206;28;19921;-83
2023/08/19 04:50:50;;;;;;;;;;;;;;;;;;5033338;28;20019;-84
2023/08/19 04:53:16;;;;;;;;;;;;;;;;;;5016790;28;20015;-84
2023/08/19 04:55:42;;;;;;;;;;;;;;;;;;5016038;28;19925;-84
2023/08/19 04:58:08;;;;;;;;;;;;;;;;;;5033861;28;19927;-84
2023/08/19 05:00:35;;;;;;;;;;;;;;;;;;5031418;28;19925;-83
2023/08/19 05:03:01;;;;;;;;;;;;;;;;;;5017369;28;19920;-84
2023/08/19 05:05:27;;;;;;;;;;;;;;;;;;5033444;28;19925;-84
2023/08/19 05:07:53;;;;;;;;;;;;;;;;;;5031196;28;19927;-84
2023/08/19 05:10:19;;;;;;;;;;;;;;;;;;5017732;28;19943;-84
2023/08/19 05:12:45;;;;;;;;;;;;;;;;;;5032565;28;19935;-84
2023/08/19 05:15:12;;;;;;;;;;;;;;;;;;5033040;28;19921;-84
2023/08/19 05:17:38;;;;;;;;;;;;;;;;;;5029351;28;19924;-83
2023/08/19 05:20:03;;;;;;;;;;;;;;;;;;5015362;28;19974;-84
2023/08/19 05:22:29;;;;;;;;;;;;;;;;;;5033569;28;20267;-84
2023/08/19 05:24:55;;;;;;;;;;;;;;;;;;5032855;28;19921;-84
2023/08/19 05:27:21;;;;;;;;;;;;;;;;;;5015973;28;20029;-84
2023/08/19 05:29:47;;;;;;;;;;;;;;;;;;5026921;28;19928;-84
2023/08/19 05:32:13;;;;;;;;;;;;;;;;;;5014566;28;19921;-84
2023/08/19 05:34:39;;;;;;;;;;;;;;;;;;5033260;28;19924;-84
2023/08/19 05:37:05;;;;;;;;;;;;;;;;;;5017757;28;19927;-84
2023/08/19 05:39:31;;;;;;;;;;;;;;;;;;5016609;28;19921;-83
2023/08/19 05:41:57;;;;;;;;;;;;;;;;;;5033811;28;20297;-83
2023/08/19 05:44:23;;;;;;;;;;;;;;;;;;5016015;28;19928;-83
2023/08/19 05:46:51;;;;;;;;;;;;;;;;;;5019751;28;20015;-83
2023/08/19 05:49:16;;;;;;;;;;;;;;;;;;5037706;28;19952;-84
2023/08/19 05:51:42;;;;;;;;;;;;;;;;;;5029455;28;19952;-84
2023/08/19 05:54:08;;;;;;;;;;;;;;;;;;5021526;28;19928;-83
2023/08/19 05:56:34;;;;;;;;;;;;;;;;;;5038276;28;19921;-84
2023/08/19 05:59:00;;;;;;;;;;;;;;;;;;5005756;28;20369;-84
2023/08/19 06:01:26;;;;;;;;;;;;;;;;;;5018080;28;20354;-83
2023/08/19 06:03:52;;;;;;;;;;;;;;;;;;5027909;28;20334;-83
2023/08/19 06:06:18;;;;;;;;;;;;;;;;;;5018801;28;19921;-83
2023/08/19 06:08:44;;;;;;;;;;;;;;;;;;5022829;28;19920;-84
2023/08/19 06:11:10;;;;;;;;;;;;;;;;;;5019845;28;19921;-82
2023/08/19 06:13:36;;;;;;;;;;;;;;;;;;5037405;28;19927;-83
2023/08/19 06:16:03;;;;;;;;;;;;;;;;;;5020003;28;20270;-80
2023/08/19 06:18:29;;;;;;;;;;;;;;;;;;5035606;28;19927;-82
2023/08/19 06:20:55;;;;;;;;;;;;;;;;;;5033698;28;19925;-81
2023/08/19 06:23:21;;;;;;;;;;;;;;;;;;5030788;28;19975;-81
2023/08/19 06:25:47;;;;;;;;;;;;;;;;;;5034699;28;20016;-82
2023/08/19 06:28:13;;;;;;;;;;;;;;;;;;5018767;28;19924;-81
2023/08/19 06:30:39;;;;;;;;;;;;;;;;;;5019490;28;20326;-80
2023/08/19 06:33:05;;;;;;;;;;;;;;;;;;5035649;28;20011;-81
2023/08/19 06:35:31;;;;;;;;;;;;;;;;;;5037708;28;19920;-81
2023/08/19 06:37:57;;;;;;;;;;;;;;;;;;5035250;28;19932;-81
2023/08/19 06:40:23;;;;;;;;;;;;;;;;;;5019610;28;19921;-81
2023/08/19 06:42:52;;;;;;;;;;;;;;;;;;5015567;28;19920;-81
2023/08/19 06:45:18;;;;;;;;;;;;;;;;;;5027625;28;21250;-81
2023/08/19 06:47:45;;;;;;;;;;;;;;;;;;5018843;28;20393;-82
2023/08/19 06:50:12;;;;;;;;;;;;;;;;;;5017312;28;20496;-73
2023/08/19 06:52:38;;;;;;;;;;;;;;;;;;5049655;28;19921;-72
2023/08/19 06:55:04;;;;;;;;;;;;;;;;;;5046816;28;20285;-74
2023/08/19 06:57:30;;;;;;;;;;;;;;;;;;5032376;28;19921;-74
2023/08/19 06:59:56;;;;;;;;;;;;;;;;;;5027025;28;19920;-72
2023/08/19 07:02:22;;;;;;;;;;;;;;;;;;5001300;28;20335;-76
2023/08/19 07:04:48;;;;;;;;;;;;;;;;;;5018078;28;19928;-74
2023/08/19 07:07:14;;;;;;;;;;;;;;;;;;5033669;28;19928;-72
2023/08/19 07:09:40;;;;;;;;;;;;;;;;;;5036964;28;20301;-75
2023/08/19 07:12:06;;;;;;;;;;;;;;;;;;5035025;28;20007;-73
2023/08/19 07:14:32;;;;;;;;;;;;;;;;;;5019324;28;19921;-73
2023/08/19 07:16:58;;;;;;;;;;;;;;;;;;5032716;28;19921;-72
2023/08/19 07:19:24;;;;;;;;;;;;;;;;;;5038148;28;20024;-72
2023/08/19 07:21:50;;;;;;;;;;;;;;;;;;5035361;28;20015;-72
2023/08/19 07:24:16;;;;;;;;;;;;;;;;;;5033418;28;19935;-73
2023/08/19 07:26:42;;;;;;;;;;;;;;;;;;5052674;28;19927;-75
2023/08/19 07:29:08;;;;;;;;;;;;;;;;;;5029398;28;19933;-74
2023/08/19 07:31:34;;;;;;;;;;;;;;;;;;5032401;28;19921;-72
2023/08/19 07:33:59;;;;;;;;;;;;;;;;;;5049981;28;19921;-71
2023/08/19 07:36:25;;;;;;;;;;;;;;;;;;5053469;28;20361;-70
2023/08/19 07:38:51;;;;;;;;;;;;;;;;;;5032823;28;19924;-71
2023/08/19 07:41:17;;;;;;;;;;;;;;;;;;5034410;28;19929;-70
2023/08/19 07:43:43;;;;;;;;;;;;;;;;;;5035132;28;19969;-70
2023/08/19 07:46:09;;;;;;;;;;;;;;;;;;5052625;28;20362;-74
2023/08/19 07:48:35;;;;;;;;;;;;;;;;;;5027169;28;20331;-75
2023/08/19 07:51:01;;;;;;;;;;;;;;;;;;5035286;28;19921;-76
2023/08/19 07:53:27;;;;;;;;;;;;;;;;;;5032846;28;19932;-74
2023/08/19 07:55:53;;;;;;;;;;;;;;;;;;5035512;28;19975;-74
2023/08/19 07:58:19;;;;;;;;;;;;;;;;;;5033502;28;19921;-74
2023/08/19 08:00:45;;;;;;;;;;;;;;;;;;5050427;28;20434;-72
2023/08/19 08:03:11;;;;;;;;;;;;;;;;;;5049056;28;19925;-72
2023/08/19 08:05:37;;;;;;;;;;;;;;;;;;5035110;28;19931;-72
2023/08/19 08:08:03;;;;;;;;;;;;;;;;;;5033965;28;19936;-73
2023/08/19 08:10:29;;;;;;;;;;;;;;;;;;5032500;28;19925;-73
2023/08/19 08:12:55;;;;;;;;;;;;;;;;;;5033955;28;19921;-73
2023/08/19 08:15:21;;;;;;;;;;;;;;;;;;5051870;28;19967;-72
2023/08/19 08:17:47;;;;;;;;;;;;;;;;;;5052223;28;20342;-72
2023/08/19 08:20:13;;;;;;;;;;;;;;;;;;5032038;28;19928;-68
2023/08/19 08:22:39;;;;;;;;;;;;;;;;;;5049477;28;19921;-70
2023/08/19 08:25:05;;;;;;;;;;;;;;;;;;5051670;28;20011;-79
2023/08/19 08:27:31;;;;;;;;;;;;;;;;;;5011176;28;20429;-81
2023/08/19 08:29:57;;;;;;;;;;;;;;;;;;5032090;28;19928;-80
2023/08/19 08:32:23;;;;;;;;;;;;;;;;;;5032355;28;20354;-78
2023/08/19 08:34:49;;;;;;;;;;;;;;;;;;5024159;28;19936;-79
2023/08/19 08:37:15;;;;;;;;;;;;;;;;;;5026128;28;19921;-80
2023/08/19 08:39:41;;;;;;;;;;;;;;;;;;5023969;28;19921;-79
2023/08/19 08:42:07;;;;;;;;;;;;;;;;;;5025345;28;20009;-80
2023/08/19 08:44:33;;;;;;;;;;;;;;;;;;5025126;28;19924;-78
2023/08/19 08:47:00;;;;;;;;;;;;;;;;;;5027527;28;19928;-80
2023/08/19 08:49:27;;;;;;;;;;;;;;;;;;5023255;28;19947;-80
2023/08/19 08:51:52;;;;;;;;;;;;;;;;;;5010761;28;19920;-80
2023/08/19 08:54:18;;;;;;;;;;;;;;;;;;5023275;28;19928;-81
2023/08/19 08:56:44;;;;;;;;;;;;;;;;;;5025482;28;19925;-81
2023/08/19 08:59:11;;;;;;;;;;;;;;;;;;5005456;28;20449;-80
2023/08/19 09:01:37;;;;;;;;;;;;;;;;;;5024418;28;19924;-81
2023/08/19 09:04:03;;;;;;;;;;;;;;;;;;5008952;28;19925;-83
2023/08/19 09:06:29;;;;;;;;;;;;;;;;;;5026462;28;20426;-90
2023/08/19 09:08:55;;;;;;;;;;;;;;;;;;5048146;28;19928;-84
2023/08/19 09:11:21;;;;;;;;;;;;;;;;;;5048230;28;20328;-77
2023/08/19 09:13:47;;;;;;;;;;;;;;;;;;5044976;28;19947;-76
2023/08/19 09:16:13;;;;;;;;;;;;;;;;;;5038725;28;19928;-76
2023/08/19 09:18:39;;;;;;;;;;;;;;;;;;5029284;28;20019;-77
2023/08/19 09:21:06;;;;;;;;;;;;;;;;;;5027936;28;19921;-74
2023/08/19 09:23:32;;;;;;;;;;;;;;;;;;5036531;28;19921;-75
2023/08/19 09:25:58;;;;;;;;;;;;;;;;;;5052365;28;19928;-76
2023/08/19 09:28:24;;;;;;;;;;;;;;;;;;5032927;28;20378;-74
2023/08/19 09:30:50;;;;;;;;;;;;;;;;;;5015684;28;19921;-74
2023/08/19 09:33:16;;;;;;;;;;;;;;;;;;5031728;28;19921;-72
2023/08/19 09:35:42;;;;;;;;;;;;;;;;;;5051522;28;20488;-79
2023/08/19 09:38:08;;;;;;;;;;;;;;;;;;5033105;28;20370;-78
2023/08/19 09:40:34;;;;;;;;;;;;;;;;;;5033967;28;19994;-76
2023/08/19 09:42:59;;;;;;;;;;;;;;;;;;5033469;28;19927;-75
2023/08/19 09:45:26;;;;;;;;;;;;;;;;;;5032452;28;19920;-70
2023/08/19 09:47:52;;;;;;;;;;;;;;;;;;5034726;28;19927;-77
2023/08/19 09:50:18;;;;;;;;;;;;;;;;;;5016492;28;19920;-76
2023/08/19 09:52:44;;;;;;;;;;;;;;;;;;5028754;28;20053;-76
2023/08/19 09:55:10;;;;;;;;;;;;;;;;;;5032770;28;19964;-78
2023/08/19 09:57:36;;;;;;;;;;;;;;;;;;5034005;28;19971;-77
2023/08/19 10:00:03;;;;;;;;;;;;;;;;;;5033505;28;19921;-77
2023/08/19 10:02:29;;;;;;;;;;;;;;;;;;5032690;28;20751;-77
2023/08/19 10:04:55;;;;;;;;;;;;;;;;;;5033919;28;19921;-81
2023/08/19 10:07:22;;;;;;;;;;;;;;;;;;5021011;28;19928;-78
2023/08/19 10:09:48;;;;;;;;;;;;;;;;;;5031644;28;19928;-79
2023/08/19 10:12:15;;;;;;;;;;;;;;;;;;5029784;28;19921;-77
2023/08/19 10:14:41;;;;;;;;;;;;;;;;;;5033298;28;19987;-77
2023/08/19 10:17:07;;;;;;;;;;;;;;;;;;5032934;28;19936;-74
2023/08/19 10:19:33;;;;;;;;;;;;;;;;;;5033185;28;19967;-76
2023/08/19 10:21:59;;;;;;;;;;;;;;;;;;5033492;28;20293;-74
2023/08/19 10:24:25;;;;;;;;;;;;;;;;;;5028647;28;20114;-74
2023/08/19 10:26:51;;;;;;;;;;;;;;;;;;5024996;28;19924;-74
2023/08/19 10:29:17;;;;;;;;;;;;;;;;;;5032379;28;19936;-75
2023/08/19 10:31:43;;;;;;;;;;;;;;;;;;5016831;28;19921;-76
2023/08/19 10:34:10;;;;;;;;;;;;;;;;;;5019966;28;19979;-76
2023/08/19 10:36:36;;;;;;;;;;;;;;;;;;5020957;28;19921;-74
2023/08/19 10:39:05;;;;;;;;;;;;;;;;;;5018939;28;20370;-78
2023/08/19 10:41:33;;;;;;;;;;;;;;;;;;5018207;28;20019;-76
2023/08/19 10:43:59;;;;;;;;;;;;;;;;;;5026745;28;20362;-76
2023/08/19 10:46:25;;;;;;;;;;;;;;;;;;5018188;28;19956;-74
2023/08/19 10:48:51;;;;;;;;;;;;;;;;;;5020654;28;19963;-76
2023/08/19 10:51:17;;;;;;;;;;;;;;;;;;5027686;28;19956;-78
2023/08/19 10:53:43;;;;;;;;;;;;;;;;;;5034679;28;19927;-76
2023/08/19 10:56:09;;;;;;;;;;;;;;;;;;5030192;28;19921;-76
2023/08/19 10:58:35;;;;;;;;;;;;;;;;;;5035593;28;19935;-76
2023/08/19 11:01:01;;;;;;;;;;;;;;;;;;5036352;28;20035;-79
2023/08/19 11:03:27;;;;;;;;;;;;;;;;;;5035353;28;19974;-80
2023/08/19 11:05:53;;;;;;;;;;;;;;;;;;5028494;28;19921;-79
2023/08/19 11:08:19;;;;;;;;;;;;;;;;;;5025854;28;20409;-81
2023/08/19 11:10:45;;;;;;;;;;;;;;;;;;5020627;28;19964;-77
2023/08/19 11:13:11;;;;;;;;;;;;;;;;;;5034889;28;20015;-78
2023/08/19 11:15:38;;;;;;;;;;;;;;;;;;5034753;28;20044;-78
2023/08/19 11:18:04;;;;;;;;;;;;;;;;;;5026665;28;19921;-78
2023/08/19 11:20:30;;;;;;;;;;;;;;;;;;5030160;28;19943;-78
2023/08/19 11:22:56;;;;;;;;;;;;;;;;;;5025729;28;19927;-78
2023/08/19 11:25:22;;;;;;;;;;;;;;;;;;5034847;28;19933;-78
2023/08/19 11:27:48;;;;;;;;;;;;;;;;;;5035610;28;20011;-78
2023/08/19 11:30:14;;;;;;;;;;;;;;;;;;5034954;28;20389;-78
2023/08/19 11:32:40;;;;;;;;;;;;;;;;;;5026100;28;20496;-78
2023/08/19 11:35:06;;;;;;;;;;;;;;;;;;5035261;28;19920;-77
2023/08/19 11:37:32;;;;;;;;;;;;;;;;;;5027374;28;20039;-78
2023/08/19 11:39:58;;;;;;;;;;;;;;;;;;5028395;28;20377;-77
2023/08/19 11:42:24;;;;;;;;;;;;;;;;;;5027209;28;20251;-77
2023/08/19 11:44:51;;;;;;;;;;;;;;;;;;5035536;28;19927;-77
2023/08/19 11:47:17;;;;;;;;;;;;;;;;;;5033757;28;19924;-77
2023/08/19 11:49:43;;;;;;;;;;;;;;;;;;5035901;28;20285;-78
2023/08/19 11:52:09;;;;;;;;;;;;;;;;;;5036298;28;19990;-77
2023/08/19 11:54:35;;;;;;;;;;;;;;;;;;5035594;28;20351;-78
2023/08/19 11:57:02;;;;;;;;;;;;;;;;;;5034432;28;20480;-78
2023/08/19 11:59:28;;;;;;;;;;;;;;;;;;5035273;28;19925;-78
2023/08/19 12:01:54;;;;;;;;;;;;;;;;;;5033044;28;19932;-78
2023/08/19 12:04:20;;;;;;;;;;;;;;;;;;5035121;28;19956;-78
2023/08/19 12:06:46;;;;;;;;;;;;;;;;;;5027010;28;19927;-78
2023/08/19 12:09:12;;;;;;;;;;;;;;;;;;5035889;28;20484;-78
2023/08/19 12:11:38;;;;;;;;;;;;;;;;;;5035252;28;20428;-79
2023/08/19 12:14:04;;;;;;;;;;;;;;;;;;5029290;28;19921;-79
2023/08/19 12:16:30;;;;;;;;;;;;;;;;;;5033865;28;19921;-79
2023/08/19 12:18:59;;;;;;;;;;;;;;;;;;5024434;28;20709;-79
2023/08/19 12:21:25;;;;;;;;;;;;;;;;;;5024032;28;19921;-80
2023/08/19 12:23:51;;;;;;;;;;;;;;;;;;5005558;28;20022;-79
2023/08/19 12:26:17;;;;;;;;;;;;;;;;;;5012136;28;20530;-79
2023/08/19 12:28:43;;;;;;;;;;;;;;;;;;4999049;28;19929;-79
2023/08/19 12:31:09;;;;;;;;;;;;;;;;;;5009625;28;20278;-79
2023/08/19 12:33:35;;;;;;;;;;;;;;;;;;5011986;28;19925;-79
2023/08/19 12:36:01;;;;;;;;;;;;;;;;;;5008107;28;20023;-79
2023/08/19 12:38:27;;;;;;;;;;;;;;;;;;5001632;28;19929;-79
2023/08/19 12:40:53;;;;;;;;;;;;;;;;;;5011860;28;20378;-78
2023/08/19 12:43:19;;;;;;;;;;;;;;;;;;5011515;28;20008;-79
2023/08/19 12:45:45;;;;;;;;;;;;;;;;;;5007386;28;19930;-79
2023/08/19 12:48:11;;;;;;;;;;;;;;;;;;5010927;28;19927;-79
2023/08/19 12:50:37;;;;;;;;;;;;;;;;;;5011611;28;19929;-79
2023/08/19 12:53:03;;;;;;;;;;;;;;;;;;5004158;28;19929;-79
2023/08/19 12:55:29;;;;;;;;;;;;;;;;;;5006991;28;19921;-78
2023/08/19 12:57:55;;;;;;;;;;;;;;;;;;5002651;28;20347;-79
2023/08/19 13:00:22;;;;;;;;;;;;;;;;;;5009557;28;19921;-79
2023/08/19 13:02:48;;;;;;;;;;;;;;;;;;4995212;28;19932;-79
2023/08/19 13:05:14;;;;;;;;;;;;;;;;;;5011703;28;20398;-78
2023/08/19 13:07:40;;;;;;;;;;;;;;;;;;4989538;28;20282;-78
2023/08/19 13:10:06;;;;;;;;;;;;;;;;;;5011734;28;19925;-77
2023/08/19 13:12:32;;;;;;;;;;;;;;;;;;5010065;28;19928;-78
2023/08/19 13:14:58;;;;;;;;;;;;;;;;;;5011421;28;19922;-78
2023/08/19 13:17:24;;;;;;;;;;;;;;;;;;5010967;28;19921;-78
2023/08/19 13:19:50;;;;;;;;;;;;;;;;;;5011326;28;19925;-77
2023/08/19 13:22:21;;;;;;;;;;;;;;;;;;5013187;28;20498;-78
2023/08/19 13:24:47;;;;;;;;;;;;;;;;;;5030151;28;20090;-78
2023/08/19 13:27:13;;;;;;;;;;;;;;;;;;5030452;28;19921;-77
2023/08/19 13:29:38;;;;;;;;;;;;;;;;;;5011757;28;19928;-77
2023/08/19 13:32:04;;;;;;;;;;;;;;;;;;5012151;28;19921;-69
2023/08/19 13:34:30;;;;;;;;;;;;;;;;;;5032131;28;20358;-72
2023/08/19 13:36:56;;;;;;;;;;;;;;;;;;5029971;28;20370;-73
2023/08/19 13:39:22;;;;;;;;;;;;;;;;;;5031121;28;20278;-72
2023/08/19 13:41:48;;;;;;;;;;;;;;;;;;5029919;28;19921;-72
2023/08/19 13:44:14;;;;;;;;;;;;;;;;;;5030106;28;19929;-74
2023/08/19 13:46:40;;;;;;;;;;;;;;;;;;5029016;28;19971;-72
2023/08/19 13:49:06;;;;;;;;;;;;;;;;;;5032234;28;20019;-72
2023/08/19 13:51:32;;;;;;;;;;;;;;;;;;5032069;28;19921;-72
2023/08/19 13:53:58;;;;;;;;;;;;;;;;;;5029833;28;19917;-72
2023/08/19 13:56:24;;;;;;;;;;;;;;;;;;5032294;28;19988;-72
2023/08/19 13:58:50;;;;;;;;;;;;;;;;;;5028388;28;19921;-71
2023/08/19 14:01:16;;;;;;;;;;;;;;;;;;5025228;28;19928;-69
2023/08/19 14:03:42;;;;;;;;;;;;;;;;;;5031571;28;19927;-69
2023/08/19 14:06:08;;;;;;;;;;;;;;;;;;5033123;28;20015;-69
2023/08/19 14:08:36;;;;;;;;;;;;;;;;;;5034946;28;19925;-69
2023/08/19 14:11:02;;;;;;;;;;;;;;;;;;5034124;28;20499;-71
2023/08/19 14:13:28;;;;;;;;;;;;;;;;;;5031158;28;19936;-72
2023/08/19 14:15:55;;;;;;;;;;;;;;;;;;5024872;28;19935;-71
2023/08/19 14:18:21;;;;;;;;;;;;;;;;;;5027689;28;19921;-70
2023/08/19 14:20:46;;;;;;;;;;;;;;;;;;5017652;28;20444;-71
2023/08/19 14:23:12;;;;;;;;;;;;;;;;;;5038283;28;20263;-70
2023/08/19 14:25:38;;;;;;;;;;;;;;;;;;5028084;28;19928;-70
2023/08/19 14:28:04;;;;;;;;;;;;;;;;;;5036353;28;19924;-71
2023/08/19 14:30:30;;;;;;;;;;;;;;;;;;5053984;28;19920;-74
2023/08/19 14:32:56;;;;;;;;;;;;;;;;;;5035451;28;20281;-74
2023/08/19 14:35:22;;;;;;;;;;;;;;;;;;5038838;28;19921;-74
2023/08/19 14:37:48;;;;;;;;;;;;;;;;;;5044517;28;20306;-70
2023/08/19 14:40:14;;;;;;;;;;;;;;;;;;5034127;28;20456;-70
2023/08/19 14:42:40;;;;;;;;;;;;;;;;;;5016568;28;19967;-70
2023/08/19 14:45:06;;;;;;;;;;;;;;;;;;5042769;28;19929;-70
2023/08/19 14:47:33;;;;;;;;;;;;;;;;;;5052899;28;19975;-70
2023/08/19 14:49:59;;;;;;;;;;;;;;;;;;5053279;28;19932;-70
2023/08/19 14:52:25;;;;;;;;;;;;;;;;;;5053914;28;19924;-71
2023/08/19 14:54:50;;;;;;;;;;;;;;;;;;5042853;28;19987;-70
2023/08/19 14:57:17;;;;;;;;;;;;;;;;;;5047901;28;19921;-71
2023/08/19 14:59:43;;;;;;;;;;;;;;;;;;5051073;28;19920;-70
2023/08/19 15:02:09;;;;;;;;;;;;;;;;;;5024981;28;19928;-70
2023/08/19 15:04:35;;;;;;;;;;;;;;;;;;5033797;28;19936;-71
2023/08/19 15:07:02;;;;;;;;;;;;;;;;;;5016285;28;19960;-70
2023/08/19 15:09:29;;;;;;;;;;;;;;;;;;5035680;28;20003;-70
2023/08/19 15:11:55;;;;;;;;;;;;;;;;;;5023844;28;19929;-70
2023/08/19 15:14:21;;;;;;;;;;;;;;;;;;5042157;28;19921;-70
2023/08/19 15:16:47;;;;;;;;;;;;;;;;;;5032660;28;19921;-70
2023/08/19 15:19:13;;;;;;;;;;;;;;;;;;5043062;28;19928;-70
2023/08/19 15:21:39;;;;;;;;;;;;;;;;;;5045520;28;19925;-72
2023/08/19 15:24:05;;;;;;;;;;;;;;;;;;5049930;28;19920;-68
2023/08/19 15:26:31;;;;;;;;;;;;;;;;;;5046325;28;20003;-68
2023/08/19 15:28:56;;;;;;;;;;;;;;;;;;5047234;28;19921;-67
2023/08/19 15:31:25;;;;;;;;;;;;;;;;;;5052444;28;19927;-70
2023/08/19 15:33:53;;;;;;;;;;;;;;;;;;5051589;28;19921;-72
2023/08/19 15:36:19;;;;;;;;;;;;;;;;;;5052877;28;19968;-70
2023/08/19 15:38:45;;;;;;;;;;;;;;;;;;5051933;28;19964;-70
2023/08/19 15:41:11;;;;;;;;;;;;;;;;;;5053330;28;20567;-70
2023/08/19 15:43:37;;;;;;;;;;;;;;;;;;5035107;28;19927;-70
2023/08/19 15:46:03;;;;;;;;;;;;;;;;;;5032932;28;19970;-71
2023/08/19 15:48:29;;;;;;;;;;;;;;;;;;5047771;28;20015;-72
2023/08/19 15:50:55;;;;;;;;;;;;;;;;;;5046103;28;20014;-70
2023/08/19 15:53:21;;;;;;;;;;;;;;;;;;5050776;28;19929;-71
2023/08/19 15:55:47;;;;;;;;;;;;;;;;;;5048769;28;20362;-71
2023/08/19 15:58:13;;;;;;;;;;;;;;;;;;5044876;28;20626;-72
2023/08/19 16:00:39;;;;;;;;;;;;;;;;;;5050449;28;19931;-72
2023/08/19 16:03:05;;;;;;;;;;;;;;;;;;5047774;28;19921;-72
2023/08/19 16:05:32;;;;;;;;;;;;;;;;;;5047180;28;19925;-72
2023/08/19 16:08:00;;;;;;;;;;;;;;;;;;5043837;28;19921;-72
2023/08/19 16:10:26;;;;;;;;;;;;;;;;;;5033908;28;20011;-72
2023/08/19 16:12:52;;;;;;;;;;;;;;;;;;5032183;28;20007;-72
2023/08/19 16:15:18;;;;;;;;;;;;;;;;;;5046586;28;19929;-73
2023/08/19 16:17:44;;;;;;;;;;;;;;;;;;5043431;28;20011;-73
2023/08/19 16:20:10;;;;;;;;;;;;;;;;;;5046930;28;19921;-72
2023/08/19 16:22:35;;;;;;;;;;;;;;;;;;5022616;28;19928;-72
2023/08/19 16:25:01;;;;;;;;;;;;;;;;;;5050360;28;19931;-72
2023/08/19 16:27:27;;;;;;;;;;;;;;;;;;5048765;28;20448;-72
2023/08/19 16:29:53;;;;;;;;;;;;;;;;;;5049400;28;20290;-72
2023/08/19 16:32:19;;;;;;;;;;;;;;;;;;5031634;28;19943;-72
2023/08/19 16:34:45;;;;;;;;;;;;;;;;;;5033656;28;19921;-72
2023/08/19 16:37:11;;;;;;;;;;;;;;;;;;5049971;28;20362;-72